Time;durP1;ratioP1;P1;durP2;ratioP2;P2;SDS_P1;SDS_P2;PMS_P1;PMS_P2;Temp;Humidity;BMP_temperature;BMP_pressure;BME280_temperature;BME280_humidity;BME280_pressure;Samples;Min_cycle;Max_cycle;Signal;HPM_P1;HPM_P2
2023/06/12 00:00:05;;;;;;;1999.90;999.90;;;21.60;10.80;;;;;;5034071;28;20168;-68
2023/06/12 00:02:31;;;;;;;1999.90;999.90;;;21.50;11.90;;;;;;5033530;28;20436;-67
2023/06/12 00:04:57;;;;;;;1999.90;999.90;;;21.40;10.80;;;;;;5033925;28;20493;-68
2023/06/12 00:07:25;;;;;;;1999.90;999.90;;;21.20;10.90;;;;;;5033789;28;20511;-68
2023/06/12 00:09:51;;;;;;;1999.90;999.90;;;21.10;8.80;;;;;;5033894;28;20402;-68
2023/06/12 00:12:17;;;;;;;1999.90;999.90;;;21.10;8.50;;;;;;5033478;28;20757;-67
2023/06/12 00:14:42;;;;;;;1999.90;999.90;;;21.10;9.10;;;;;;5033777;28;20381;-67
2023/06/12 00:17:08;;;;;;;1999.90;999.90;;;21.10;9.60;;;;;;5033592;28;20258;-67
2023/06/12 00:19:33;;;;;;;1999.90;999.90;;;21.10;11.00;;;;;;5033597;28;20283;-67
2023/06/12 00:22:00;;;;;;;1999.90;999.90;;;21.10;11.40;;;;;;5033297;28;20199;-68
2023/06/12 00:24:25;;;;;;;1999.90;999.90;;;21.00;11.00;;;;;;5033727;28;20583;-67
2023/06/12 00:26:51;;;;;;;1999.90;999.90;;;20.90;11.80;;;;;;5033628;28;20509;-68
2023/06/12 00:29:17;;;;;;;1999.90;999.90;;;20.80;13.10;;;;;;5033585;28;20705;-68
2023/06/12 00:31:43;;;;;;;1999.90;999.90;;;20.80;12.80;;;;;;5033118;28;20418;-68
2023/06/12 00:34:08;;;;;;;1999.90;999.90;;;20.80;13.50;;;;;;5033430;28;21100;-68
2023/06/12 00:36:34;;;;;;;1999.90;999.90;;;20.90;13.00;;;;;;5033284;28;20187;-68
2023/06/12 00:39:00;;;;;;;1999.90;999.90;;;21.00;12.60;;;;;;5033287;28;20179;-68
2023/06/12 00:41:25;;;;;;;1999.90;999.90;;;21.10;12.20;;;;;;5032862;28;20462;-68
2023/06/12 00:43:51;;;;;;;1999.90;999.90;;;21.10;12.10;;;;;;5033217;28;20173;-68
2023/06/12 00:46:18;;;;;;;1999.90;999.90;;;21.30;12.40;;;;;;5033184;28;20187;-68
2023/06/12 00:48:43;;;;;;;1999.90;999.90;;;21.30;13.10;;;;;;5033188;28;20177;-67
2023/06/12 00:51:10;;;;;;;1999.90;999.90;;;21.40;14.10;;;;;;5032894;28;20389;-68
2023/06/12 00:53:36;;;;;;;1999.90;999.90;;;21.30;14.90;;;;;;5033095;28;20167;-68
2023/06/12 00:56:01;;;;;;;1999.90;999.90;;;21.40;16.40;;;;;;5032933;28;20385;-68
2023/06/12 00:58:27;;;;;;;1999.90;999.90;;;21.20;14.90;;;;;;5032980;28;20641;-68
2023/06/12 01:00:54;;;;;;;1999.90;999.90;;;21.00;14.10;;;;;;5032530;28;20224;-68
2023/06/12 01:03:21;;;;;;;1999.90;999.90;;;20.80;14.20;;;;;;5032643;28;20773;-68
2023/06/12 01:05:47;;;;;;;1999.90;999.90;;;20.70;14.50;;;;;;5032829;28;20403;-68
2023/06/12 01:08:37;;;;;;;1999.90;999.90;;;20.60;14.30;;;;;;5032750;28;20790;-68
2023/06/12 01:11:07;;;;;;;1999.90;999.90;;;20.60;16.10;;;;;;5032463;28;20531;-68
2023/06/12 01:13:33;;;;;;;1999.90;999.90;;;20.50;18.30;;;;;;5032659;28;20461;-68
2023/06/12 01:15:59;;;;;;;1999.90;999.90;;;20.40;18.60;;;;;;5032568;28;20459;-68
2023/06/12 01:18:26;;;;;;;1999.90;999.90;;;20.40;20.00;;;;;;5032570;28;20404;-68
2023/06/12 01:20:55;;;;;;;1999.90;999.90;;;20.40;20.70;;;;;;5032248;28;20503;-68
2023/06/12 01:23:39;;;;;;;1999.90;999.90;;;20.30;22.40;;;;;;5032601;28;20441;-68
2023/06/12 01:26:18;;;;;;;1999.90;999.90;;;20.20;24.80;;;;;;5032280;28;20409;-68
2023/06/12 01:29:13;;;;;;;1999.90;999.90;;;20.20;26.00;;;;;;5032419;28;20438;-68
2023/06/12 01:32:03;;;;;;;1999.90;999.90;;;20.30;27.20;;;;;;5001267;28;20483;-68
2023/06/12 01:34:35;;;;;;;1999.90;999.90;;;20.30;28.60;;;;;;5032341;28;20439;-68
2023/06/12 01:37:17;;;;;;;1999.90;999.90;;;20.40;28.80;;;;;;5032308;28;20430;-69
2023/06/12 01:39:57;;;;;;;1999.90;999.90;;;20.40;31.70;;;;;;5032416;28;20514;-68
2023/06/12 01:42:27;;;;;;;1999.90;999.90;;;20.30;35.00;;;;;;5031870;28;20444;-68
2023/06/12 01:44:53;;;;;;;1999.90;999.90;;;20.10;35.00;;;;;;5032162;28;20899;-68
2023/06/12 01:47:19;;;;;;;1999.90;999.90;;;20.00;37.30;;;;;;5032153;28;20430;-68
2023/06/12 01:49:45;;;;;;;1999.90;999.90;;;19.90;39.10;;;;;;5032228;28;20404;-68
2023/06/12 01:52:11;;;;;;;1999.90;999.90;;;19.90;40.00;;;;;;5031912;28;20989;-68
2023/06/12 01:54:37;;;;;;;1999.90;999.90;;;19.80;42.50;;;;;;5032119;28;20412;-68
2023/06/12 01:57:03;;;;;;;1999.90;999.90;;;19.70;46.70;;;;;;5031961;28;20239;-68
2023/06/12 01:59:29;;;;;;;1999.90;999.90;;;19.60;47.10;;;;;;5032002;28;20885;-68
2023/06/12 02:01:54;;;;;;;1999.90;999.90;;;19.40;46.80;;;;;;5031623;28;20460;-68
2023/06/12 02:04:20;;;;;;;1999.90;999.90;;;19.40;49.30;;;;;;5031997;28;20698;-68
2023/06/12 02:06:46;;;;;;;1999.90;999.90;;;19.30;51.40;;;;;;5031844;28;20188;-69
2023/06/12 02:09:12;;;;;;;1999.90;999.90;;;19.30;53.20;;;;;;5031894;28;20203;-68
2023/06/12 02:11:39;;;;;;;1999.90;999.90;;;19.40;55.00;;;;;;5031536;28;20236;-69
2023/06/12 02:14:04;;;;;;;1999.90;999.90;;;19.40;55.10;;;;;;5031895;28;20917;-68
2023/06/12 02:16:30;;;;;;;1999.90;999.90;;;19.50;56.50;;;;;;5034715;28;20432;-68
2023/06/12 02:18:56;;;;;;;1999.90;999.90;;;19.50;57.70;;;;;;5035916;28;20175;-68
2023/06/12 02:21:22;;;;;;;1999.90;999.90;;;19.40;57.00;;;;;;5035557;28;20243;-68
2023/06/12 02:23:48;;;;;;;1999.90;999.90;;;19.40;57.40;;;;;;5035858;28;20384;-68
2023/06/12 02:26:13;;;;;;;1999.90;999.90;;;19.30;58.60;;;;;;5035656;28;20386;-68
2023/06/12 02:28:42;;;;;;;1999.90;999.90;;;19.30;59.50;;;;;;5035718;28;20229;-68
2023/06/12 02:31:07;;;;;;;1999.90;999.90;;;19.20;61.10;;;;;;5035621;28;20173;-68
2023/06/12 02:33:33;;;;;;;1999.90;999.90;;;19.20;63.70;;;;;;5035819;28;20951;-68
2023/06/12 02:35:59;;;;;;;1999.90;999.90;;;19.00;66.40;;;;;;5035610;28;20539;-68
2023/06/12 02:38:26;;;;;;;1999.90;999.90;;;19.10;69.80;;;;;;5035683;28;20182;-68
2023/06/12 02:40:51;;;;;;;1999.90;999.90;;;19.00;70.20;;;;;;5035252;28;20674;-68
2023/06/12 02:43:17;;;;;;;1999.90;999.90;;;18.80;72.00;;;;;;5035405;28;20415;-68
2023/06/12 02:45:42;;;;;;;1999.90;999.90;;;18.70;73.30;;;;;;5035504;28;20259;-68
2023/06/12 02:48:08;;;;;;;1999.90;999.90;;;18.70;74.40;;;;;;5035382;28;20277;-68
2023/06/12 02:50:33;;;;;;;1999.90;999.90;;;18.70;74.50;;;;;;5035523;28;20165;-68
2023/06/12 02:52:59;;;;;;;1999.90;999.90;;;18.70;71.90;;;;;;5035111;28;20190;-68
2023/06/12 02:55:25;;;;;;;1999.90;999.90;;;18.70;74.10;;;;;;5035184;28;20168;-68
2023/06/12 02:57:50;;;;;;;1999.90;999.90;;;18.70;73.40;;;;;;5035151;28;20195;-68
2023/06/12 03:00:16;;;;;;;1999.90;999.90;;;18.70;77.60;;;;;;5035239;28;20161;-68
2023/06/12 03:02:44;;;;;;;1999.90;999.90;;;18.70;78.90;;;;;;5034789;28;20203;-68
2023/06/12 03:05:12;;;;;;;1999.90;999.90;;;18.80;82.20;;;;;;5035117;28;20165;-68
2023/06/12 03:07:40;;;;;;;1999.90;999.90;;;18.80;86.50;;;;;;5035016;28;20424;-68
2023/06/12 03:10:06;;;;;;;1999.90;999.90;;;18.80;88.20;;;;;;5034958;28;20405;-68
2023/06/12 03:12:32;;;;;;;1999.90;999.90;;;18.80;89.80;;;;;;5034737;28;20907;-68
2023/06/12 03:14:59;;;;;;;1999.90;999.90;;;18.80;90.40;;;;;;5035012;28;20411;-68
2023/06/12 03:17:24;;;;;;;1999.90;999.90;;;18.80;91.90;;;;;;5034958;28;20247;-68
2023/06/12 03:19:50;;;;;;;1999.90;999.90;;;18.70;93.00;;;;;;5034729;28;20439;-68
2023/06/12 03:22:16;;;;;;;1999.90;999.90;;;18.70;93.80;;;;;;5034491;28;20196;-68
2023/06/12 03:24:41;;;;;;;1999.90;999.90;;;18.70;94.40;;;;;;5034677;28;20650;-68
2023/06/12 03:27:07;;;;;;;1999.90;999.90;;;18.60;96.20;;;;;;5034560;28;20559;-68
2023/06/12 03:29:32;;;;;;;1999.90;999.90;;;18.50;95.40;;;;;;5034834;28;20172;-68
2023/06/12 03:31:58;;;;;;;1999.90;999.90;;;18.20;97.10;;;;;;5034316;28;20715;-68
2023/06/12 03:34:24;;;;;;;1999.90;999.90;;;18.10;99.90;;;;;;5034638;28;20250;-68
2023/06/12 03:36:50;;;;;;;1999.90;999.90;;;18.00;99.90;;;;;;5034576;28;20569;-68
2023/06/12 03:39:15;;;;;;;1999.90;999.90;;;18.00;99.90;;;;;;5034374;28;20490;-68
2023/06/12 03:41:56;;;;;;;1999.90;999.90;;;18.00;99.90;;;;;;5034321;28;20622;-68
2023/06/12 03:44:22;;;;;;;1999.90;999.90;;;18.00;99.90;;;;;;5034367;28;20169;-68
2023/06/12 03:46:48;;;;;;;1999.90;999.90;;;18.00;99.90;;;;;;5034310;28;20423;-68
2023/06/12 03:49:13;;;;;;;1999.90;999.90;;;18.00;99.90;;;;;;5034622;28;20408;-67
2023/06/12 03:51:39;;;;;;;1999.90;999.90;;;18.00;99.90;;;;;;5034299;28;20656;-67
2023/06/12 03:54:06;;;;;;;1999.90;999.90;;;18.10;99.90;;;;;;5034419;28;20171;-67
2023/06/12 03:56:31;;;;;;;1999.90;999.90;;;18.10;99.90;;;;;;5034524;28;20199;-67
2023/06/12 03:58:57;;;;;;;1999.90;999.90;;;18.00;99.90;;;;;;5034456;28;20804;-67
2023/06/12 04:01:23;;;;;;;1999.90;999.90;;;18.00;99.90;;;;;;5034444;28;20855;-68
2023/06/12 04:03:48;;;;;;;1999.90;999.90;;;18.00;99.90;;;;;;5034018;28;20160;-68
2023/06/12 04:06:15;;;;;;;1999.90;999.90;;;18.10;99.90;;;;;;5033884;28;20246;-68
2023/06/12 04:08:40;;;;;;;1999.90;999.90;;;18.10;99.90;;;;;;5033809;28;20266;-68
2023/06/12 04:11:09;;;;;;;1999.90;999.90;;;18.10;99.90;;;;;;5033629;28;20508;-68
2023/06/12 04:13:35;;;;;;;1999.90;999.90;;;18.20;99.90;;;;;;5033849;28;20166;-68
2023/06/12 04:16:02;;;;;;;1999.90;999.90;;;18.30;99.90;;;;;;5033772;28;20897;-68
2023/06/12 04:18:28;;;;;;;1999.90;999.90;;;18.40;99.90;;;;;;5033696;28;20475;-68
2023/06/12 04:20:55;;;;;;;1999.90;999.90;;;18.40;99.90;;;;;;5033271;28;20412;-67
2023/06/12 04:23:20;;;;;;;1999.90;999.90;;;18.50;99.90;;;;;;5033798;28;20173;-68
2023/06/12 04:25:48;;;;;;;1999.90;999.90;;;18.50;99.90;;;;;;5033760;28;20920;-68
2023/06/12 04:28:16;;;;;;;1999.90;999.90;;;18.60;99.90;;;;;;5033664;28;20201;-68
2023/06/12 04:30:44;;;;;;;1999.90;999.90;;;18.60;99.90;;;;;;5033599;28;20399;-68
2023/06/12 04:33:11;;;;;;;1999.90;999.90;;;18.70;99.90;;;;;;5033215;28;20399;-68
2023/06/12 04:35:37;;;;;;;1999.90;999.90;;;18.80;99.90;;;;;;5033372;28;20433;-68
2023/06/12 04:38:05;;;;;;;1999.90;999.90;;;18.80;99.90;;;;;;5032504;28;20434;-68
2023/06/12 04:40:35;;;;;;;1999.90;999.90;;;18.80;99.90;;;;;;5033452;28;20482;-68
2023/06/12 04:43:02;;;;;;;1999.90;999.90;;;18.80;99.90;;;;;;5033010;28;20457;-68
2023/06/12 04:45:32;;;;;;;1999.90;999.90;;;18.80;99.90;;;;;;5033333;28;20414;-68
2023/06/12 04:47:58;;;;;;;1999.90;999.90;;;18.80;99.90;;;;;;5033084;28;20840;-68
2023/06/12 04:50:25;;;;;;;1999.90;999.90;;;18.80;99.90;;;;;;5033114;28;20489;-68
2023/06/12 04:52:52;;;;;;;1999.90;999.90;;;18.80;99.90;;;;;;5032731;28;20422;-68
2023/06/12 04:55:22;;;;;;;1999.90;999.90;;;18.80;99.90;;;;;;5033105;28;20787;-68
2023/06/12 04:57:52;;;;;;;1999.90;999.90;;;18.80;99.90;;;;;;5033006;28;20420;-68
2023/06/12 05:00:19;;;;;;;1999.90;999.90;;;18.90;99.90;;;;;;5032926;28;20406;-68
2023/06/12 05:02:46;;;;;;;1999.90;999.90;;;18.90;99.90;;;;;;5032437;28;20501;-68
2023/06/12 05:05:12;;;;;;;1999.90;999.90;;;19.00;99.90;;;;;;5032836;28;20413;-68
2023/06/12 05:07:37;;;;;;;1999.90;999.90;;;19.00;99.90;;;;;;5032758;28;20430;-68
2023/06/12 05:10:04;;;;;;;1999.90;999.90;;;19.10;99.90;;;;;;5032764;28;20454;-68
2023/06/12 05:12:29;;;;;;;1999.90;999.90;;;19.20;99.90;;;;;;5032450;28;20267;-68
2023/06/12 05:14:55;;;;;;;1999.90;999.90;;;19.20;99.90;;;;;;5032707;28;20505;-68
2023/06/12 05:17:21;;;;;;;1999.90;999.90;;;19.30;99.90;;;;;;5032546;28;20193;-68
2023/06/12 05:19:48;;;;;;;1999.90;999.90;;;19.40;99.90;;;;;;5032099;28;20199;-68
2023/06/12 05:22:13;;;;;;;1999.90;999.90;;;19.50;99.90;;;;;;5031429;28;20456;-68
2023/06/12 05:24:39;;;;;;;1999.90;999.90;;;19.60;99.90;;;;;;5031761;28;20877;-68
2023/06/12 05:27:07;;;;;;;1999.90;999.90;;;19.60;99.90;;;;;;5031611;28;20246;-68
2023/06/12 05:29:32;;;;;;;1999.90;999.90;;;19.70;99.90;;;;;;5031682;28;20208;-67
2023/06/12 05:31:58;;;;;;;1999.90;999.90;;;19.70;99.90;;;;;;5031355;28;20893;-68
2023/06/12 05:34:23;;;;;;;1999.90;999.90;;;19.70;99.90;;;;;;5031623;28;20181;-68
2023/06/12 05:36:49;;;;;;;1999.90;999.90;;;19.80;99.90;;;;;;5031759;28;20199;-68
2023/06/12 05:39:15;;;;;;;1999.90;999.90;;;19.80;99.90;;;;;;5031604;28;20229;-68
2023/06/12 05:41:41;;;;;;;1999.90;999.90;;;19.90;99.90;;;;;;5013656;28;20546;-68
2023/06/12 05:44:08;;;;;;;1999.90;999.90;;;19.80;99.90;;;;;;5031434;28;20178;-68
2023/06/12 05:46:34;;;;;;;1999.90;999.90;;;19.90;99.90;;;;;;5031386;28;20461;-68
2023/06/12 05:49:00;;;;;;;1999.90;999.90;;;19.90;99.90;;;;;;5031357;28;20486;-68
2023/06/12 05:51:27;;;;;;;1999.90;999.90;;;20.00;99.90;;;;;;5031088;28;20758;-68
2023/06/12 05:53:53;;;;;;;1999.90;999.90;;;20.10;99.90;;;;;;5031416;28;20184;-68
2023/06/12 05:56:18;;;;;;;1999.90;999.90;;;20.10;99.90;;;;;;5031209;28;20938;-69
2023/06/12 05:58:44;;;;;;;1999.90;999.90;;;20.10;99.90;;;;;;5031209;28;20170;-68
2023/06/12 06:01:16;;;;;;;1999.90;999.90;;;20.30;99.90;;;;;;5030722;28;20224;-68
2023/06/12 06:03:45;;;;;;;1999.90;999.90;;;20.40;99.90;;;;;;5031410;28;20185;-68
2023/06/12 06:06:15;;;;;;;1999.90;999.90;;;20.40;99.90;;;;;;5031126;28;20490;-68
2023/06/12 06:08:41;;;;;;;1999.90;999.90;;;20.50;99.90;;;;;;5030406;28;20405;-68
2023/06/12 06:11:07;;;;;;;1999.90;999.90;;;20.60;99.90;;;;;;5030496;28;20767;-68
2023/06/12 06:13:32;;;;;;;1999.90;999.90;;;20.60;99.90;;;;;;5030978;28;20747;-69
2023/06/12 06:15:58;;;;;;;1999.90;999.90;;;20.70;99.90;;;;;;5030868;28;20643;-68
2023/06/12 06:18:24;;;;;;;1999.90;999.90;;;20.70;99.90;;;;;;5030988;28;20183;-68
2023/06/12 06:20:49;;;;;;;1999.90;999.90;;;20.80;99.90;;;;;;4992952;28;1105299;-68
2023/06/12 06:23:15;;;;;;;1999.90;999.90;;;20.80;99.90;;;;;;5031664;28;20418;-68
2023/06/12 06:25:41;;;;;;;1999.90;999.90;;;20.90;99.90;;;;;;5031868;28;20199;-68
2023/06/12 06:28:06;;;;;;;1999.90;999.90;;;21.00;99.90;;;;;;5031620;28;20685;-68
2023/06/12 06:30:32;;;;;;;1999.90;999.90;;;21.00;99.90;;;;;;5031722;28;20210;-69
2023/06/12 06:32:58;;;;;;;1999.90;999.90;;;21.00;99.90;;;;;;5031447;28;20708;-68
2023/06/12 06:35:24;;;;;;;1999.90;999.90;;;21.10;99.90;;;;;;5031686;28;20407;-68
2023/06/12 06:37:50;;;;;;;1999.90;999.90;;;21.20;99.90;;;;;;5031687;28;20199;-69
2023/06/12 06:40:16;;;;;;;1999.90;999.90;;;21.30;99.90;;;;;;5031693;28;20211;-68
2023/06/12 06:42:42;;;;;;;1999.90;999.90;;;21.50;99.90;;;;;;5031263;28;20427;-68
2023/06/12 06:45:08;;;;;;;1999.90;999.90;;;21.50;99.90;;;;;;5031583;28;20413;-68
2023/06/12 06:47:34;;;;;;;1999.90;999.90;;;21.60;99.90;;;;;;5031517;28;20762;-68
2023/06/12 06:50:00;;;;;;;1999.90;999.90;;;21.60;99.90;;;;;;5031469;28;20414;-68
2023/06/12 06:52:26;;;;;;;1999.90;999.90;;;21.70;99.90;;;;;;5031264;28;20374;-69
2023/06/12 06:54:52;;;;;;;1999.90;999.90;;;21.80;99.90;;;;;;5031538;28;20227;-68
2023/06/12 06:57:18;;;;;;;1999.90;999.90;;;21.90;99.90;;;;;;5031437;28;20427;-68
2023/06/12 06:59:44;;;;;;;1999.90;999.90;;;22.00;99.90;;;;;;5031723;28;20876;-68
2023/06/12 07:02:10;;;;;;;1999.90;999.90;;;22.00;99.90;;;;;;5033338;28;20475;-68
2023/06/12 07:04:36;;;;;;;1999.90;999.90;;;22.10;99.90;;;;;;5035140;28;20809;-69
2023/06/12 07:07:03;;;;;;;1999.90;999.90;;;22.20;99.90;;;;;;5035045;28;20188;-68
2023/06/12 07:09:29;;;;;;;1999.90;999.90;;;22.30;99.90;;;;;;5035086;28;20183;-68
2023/06/12 07:11:55;;;;;;;1999.90;999.90;;;22.40;99.90;;;;;;5034689;28;20896;-68
2023/06/12 07:14:20;;;;;;;1999.90;999.90;;;22.50;99.90;;;;;;5034966;28;20439;-68
2023/06/12 07:16:46;;;;;;;1999.90;999.90;;;22.60;99.90;;;;;;5034859;28;20223;-68
2023/06/12 07:19:11;;;;;;;1999.90;999.90;;;22.70;99.90;;;;;;5034686;28;20179;-67
2023/06/12 07:21:38;;;;;;;1999.90;999.90;;;22.80;99.90;;;;;;5034522;28;20346;-67
2023/06/12 07:24:04;;;;;;;1999.90;999.90;;;23.00;99.80;;;;;;5034772;28;20168;-68
2023/06/12 07:26:30;;;;;;;1999.90;999.90;;;23.10;98.80;;;;;;5034669;28;20431;-67
2023/06/12 07:28:57;;;;;;;1999.90;999.90;;;23.20;98.30;;;;;;5034646;28;20411;-68
2023/06/12 07:31:22;;;;;;;1999.90;999.90;;;23.30;98.10;;;;;;5034251;28;20549;-68
2023/06/12 07:33:48;;;;;;;1999.90;999.90;;;23.40;96.80;;;;;;5034621;28;20411;-67
2023/06/12 07:36:14;;;;;;;1999.90;999.90;;;23.50;95.70;;;;;;5034425;28;20235;-68
2023/06/12 07:38:41;;;;;;;1999.90;999.90;;;23.60;96.60;;;;;;5034476;28;20176;-68
2023/06/12 07:41:07;;;;;;;1999.90;999.90;;;23.70;94.70;;;;;;5033887;28;20963;-67
2023/06/12 07:43:34;;;;;;;1999.90;999.90;;;23.70;94.40;;;;;;5034557;28;20439;-68
2023/06/12 07:46:00;;;;;;;1999.90;999.90;;;23.80;93.50;;;;;;5034396;28;20183;-68
2023/06/12 07:48:26;;;;;;;1999.90;999.90;;;23.90;94.40;;;;;;5034213;28;20414;-68
2023/06/12 07:50:52;;;;;;;1999.90;999.90;;;23.90;94.60;;;;;;5034151;28;20410;-68
2023/06/12 07:53:17;;;;;;;1999.90;999.90;;;23.90;93.50;;;;;;5034099;28;20183;-68
2023/06/12 07:55:43;;;;;;;1999.90;999.90;;;24.00;92.30;;;;;;5034238;28;20168;-68
2023/06/12 07:58:09;;;;;;;1999.90;999.90;;;24.10;93.10;;;;;;5030843;28;20196;-68
2023/06/12 08:00:35;;;;;;;1999.90;999.90;;;24.10;91.10;;;;;;5033772;28;20173;-69
2023/06/12 08:03:02;;;;;;;1999.90;999.90;;;24.10;91.90;;;;;;5033326;28;20241;-68
2023/06/12 08:05:28;;;;;;;1999.90;999.90;;;24.20;90.80;;;;;;5030521;28;20423;-69
2023/06/12 08:07:54;;;;;;;1999.90;999.90;;;24.30;88.50;;;;;;5028352;28;20434;-70
2023/06/12 08:10:20;;;;;;;1999.90;999.90;;;24.30;88.60;;;;;;5028504;28;20649;-70
2023/06/12 08:12:45;;;;;;;1999.90;999.90;;;24.40;87.60;;;;;;5027221;28;20419;-70
2023/06/12 08:15:11;;;;;;;1999.90;999.90;;;24.40;87.50;;;;;;5028385;28;20830;-69
2023/06/12 08:17:41;;;;;;;1999.90;999.90;;;24.40;88.80;;;;;;5029045;28;20337;-69
2023/06/12 08:20:09;;;;;;;1999.90;999.90;;;24.40;88.30;;;;;;5029175;28;20216;-69
2023/06/12 08:22:35;;;;;;;1999.90;999.90;;;24.60;88.80;;;;;;5028016;28;21136;-70
2023/06/12 08:25:03;;;;;;;1999.90;999.90;;;24.70;84.70;;;;;;5028612;28;20489;-71
2023/06/12 08:27:29;;;;;;;1999.90;999.90;;;24.80;80.20;;;;;;5029214;28;20207;-70
2023/06/12 08:29:55;;;;;;;1999.90;999.90;;;25.00;84.90;;;;;;5028422;28;20902;-70
2023/06/12 08:32:21;;;;;;;1999.90;999.90;;;25.10;78.30;;;;;;5028471;28;20670;-68
2023/06/12 08:34:47;;;;;;;1999.90;999.90;;;25.10;80.90;;;;;;5029072;28;20832;-72
2023/06/12 08:37:13;;;;;;;1999.90;999.90;;;25.20;78.30;;;;;;5028313;28;20431;-69
2023/06/12 08:39:39;;;;;;;1999.90;999.90;;;25.30;76.00;;;;;;5028540;28;20766;-68
2023/06/12 08:42:07;;;;;;;1999.90;999.90;;;25.40;75.10;;;;;;5028065;28;20208;-69
2023/06/12 08:44:34;;;;;;;1999.90;999.90;;;25.40;76.30;;;;;;5028382;28;20242;-69
2023/06/12 08:47:03;;;;;;;1999.90;999.90;;;25.70;73.30;;;;;;5028482;28;20453;-68
2023/06/12 08:49:30;;;;;;;1999.90;999.90;;;25.80;68.70;;;;;;5028827;28;20433;-68
2023/06/12 08:51:56;;;;;;;1999.90;999.90;;;26.00;62.10;;;;;;5028033;28;20389;-69
2023/06/12 08:54:22;;;;;;;1999.90;999.90;;;26.10;61.10;;;;;;5028643;28;20404;-69
2023/06/12 08:56:50;;;;;;;1999.90;999.90;;;26.20;61.80;;;;;;5028224;28;20208;-69
2023/06/12 08:59:16;;;;;;;1999.90;999.90;;;26.40;57.80;;;;;;5028147;28;20393;-69
2023/06/12 09:01:42;;;;;;;1999.90;999.90;;;26.50;55.80;;;;;;5027115;28;20454;-68
2023/06/12 09:04:28;;;;;;;1999.90;999.90;;;26.70;54.80;;;;;;5028367;28;20189;-69
2023/06/12 09:07:01;;;;;;;1999.90;999.90;;;26.70;51.40;;;;;;5028149;28;20458;-68
2023/06/12 09:09:40;;;;;;;1999.90;999.90;;;26.80;50.10;;;;;;5028750;28;20488;-68
2023/06/12 09:12:10;;;;;;;1999.90;999.90;;;26.90;46.40;;;;;;5027797;28;20471;-68
2023/06/12 09:14:36;;;;;;;1999.90;999.90;;;26.80;45.40;;;;;;5028678;28;20903;-68
2023/06/12 09:17:03;;;;;;;1999.90;999.90;;;26.90;47.10;;;;;;5027905;28;20416;-69
2023/06/12 09:19:36;;;;;;;1999.90;999.90;;;27.00;46.00;;;;;;5027513;28;20199;-68
2023/06/12 09:22:03;;;;;;;1999.90;999.90;;;27.10;43.20;;;;;;5027439;28;20527;-68
2023/06/12 09:24:28;;;;;;;1999.90;999.90;;;27.10;45.50;;;;;;5028017;28;20438;-69
2023/06/12 09:26:57;;;;;;;1999.90;999.90;;;27.30;46.70;;;;;;5027262;28;20429;-69
2023/06/12 09:29:30;;;;;;;1999.90;999.90;;;27.40;46.90;;;;;;5028038;28;20183;-68
2023/06/12 09:32:02;;;;;;;1999.90;999.90;;;27.50;45.90;;;;;;5028226;28;20419;-69
2023/06/12 09:34:30;;;;;;;1999.90;999.90;;;27.60;46.40;;;;;;5027969;28;20481;-69
2023/06/12 09:36:55;;;;;;;1999.90;999.90;;;27.80;45.70;;;;;;5027664;28;20461;-70
2023/06/12 09:39:26;;;;;;;1999.90;999.90;;;28.00;41.60;;;;;;5027875;28;20419;-68
2023/06/12 09:41:52;;;;;;;1999.90;999.90;;;28.10;41.50;;;;;;5026991;28;20662;-68
2023/06/12 09:44:22;;;;;;;1999.90;999.90;;;28.20;40.70;;;;;;5027484;28;20422;-69
2023/06/12 09:46:52;;;;;;;1999.90;999.90;;;28.30;37.50;;;;;;5027288;28;20426;-69
2023/06/12 09:49:21;;;;;;;1999.90;999.90;;;28.30;33.10;;;;;;5027333;28;20416;-68
2023/06/12 09:51:49;;;;;;;1999.90;999.90;;;28.20;35.20;;;;;;5027951;28;20553;-69
2023/06/12 09:54:21;;;;;;;1999.90;999.90;;;28.30;34.60;;;;;;5027062;28;20426;-69
2023/06/12 09:56:48;;;;;;;1999.90;999.90;;;28.40;36.20;;;;;;5026807;28;20441;-69
2023/06/12 09:59:18;;;;;;;1999.90;999.90;;;28.50;34.20;;;;;;5027670;28;20909;-69
2023/06/12 10:01:46;;;;;;;1999.90;999.90;;;28.60;33.40;;;;;;5027606;28;20453;-69
2023/06/12 10:04:15;;;;;;;1999.90;999.90;;;28.60;31.70;;;;;;5028097;28;20414;-69
2023/06/12 10:06:42;;;;;;;1999.90;999.90;;;28.60;31.00;;;;;;5029041;28;20415;-71
2023/06/12 10:09:09;;;;;;;1999.90;999.90;;;28.70;29.20;;;;;;5010590;28;20522;-70
2023/06/12 10:11:37;;;;;;;1999.90;999.90;;;28.80;27.80;;;;;;5026996;28;20528;-70
2023/06/12 10:14:03;;;;;;;1999.90;999.90;;;28.90;29.60;;;;;;5027258;28;20386;-70
2023/06/12 10:16:30;;;;;;;1999.90;999.90;;;29.00;27.30;;;;;;5029640;28;20431;-67
2023/06/12 10:18:56;;;;;;;1999.90;999.90;;;29.20;25.60;;;;;;5010764;28;21159;-69
2023/06/12 10:21:24;;;;;;;1999.90;999.90;;;29.30;25.00;;;;;;5028173;28;20505;-69
2023/06/12 10:23:53;;;;;;;1999.90;999.90;;;29.40;22.30;;;;;;5009996;28;20419;-68
2023/06/12 10:26:21;;;;;;;1999.90;999.90;;;29.50;22.60;;;;;;5010911;28;20459;-68
2023/06/12 10:28:47;;;;;;;1999.90;999.90;;;29.60;22.70;;;;;;5028586;28;20417;-69
2023/06/12 10:31:17;;;;;;;1999.90;999.90;;;29.80;21.80;;;;;;5027535;28;20450;-72
2023/06/12 10:34:01;;;;;;;1999.90;999.90;;;29.90;20.00;;;;;;5027061;28;20423;-69
2023/06/12 10:36:47;;;;;;;1999.90;999.90;;;30.00;19.70;;;;;;5027595;28;20418;-69
2023/06/12 10:39:17;;;;;;;1999.90;999.90;;;30.10;18.90;;;;;;5030902;28;21033;-70
2023/06/12 10:41:57;;;;;;;1999.90;999.90;;;30.30;16.70;;;;;;5033855;28;20446;-70
2023/06/12 10:44:46;;;;;;;1999.90;999.90;;;30.50;17.30;;;;;;5037393;28;20428;-70
2023/06/12 10:47:21;;;;;;;1999.90;999.90;;;30.70;15.50;;;;;;5045650;28;20425;-70
2023/06/12 10:50:05;;;;;;;1999.90;999.90;;;30.70;16.70;;;;;;5040353;28;20953;-68
2023/06/12 10:52:31;;;;;;;1999.90;999.90;;;30.80;12.90;;;;;;5026152;28;20823;-68
2023/06/12 10:55:15;;;;;;;1999.90;999.90;;;30.80;14.20;;;;;;5036538;28;20407;-68
2023/06/12 10:57:53;;;;;;;1999.90;999.90;;;30.80;13.00;;;;;;5034639;28;20971;-69
2023/06/12 11:00:21;;;;;;;1999.90;999.90;;;30.90;12.80;;;;;;5034819;28;20406;-68
2023/06/12 11:02:59;;;;;;;1999.90;999.90;;;31.00;12.90;;;;;;5039606;28;20446;-69
2023/06/12 11:05:27;;;;;;;1999.90;999.90;;;31.20;12.30;;;;;;5034587;28;20911;-69
2023/06/12 11:07:57;;;;;;;1999.90;999.90;;;31.30;10.50;;;;;;5034623;28;20461;-69
2023/06/12 11:10:23;;;;;;;1999.90;999.90;;;31.40;8.40;;;;;;5034178;28;20491;-69
2023/06/12 11:12:51;;;;;;;1999.90;999.90;;;31.40;9.90;;;;;;5034280;28;20493;-69
2023/06/12 11:15:17;;;;;;;1999.90;999.90;;;31.60;9.10;;;;;;5034609;28;20196;-68
2023/06/12 11:17:43;;;;;;;1999.90;999.90;;;31.70;7.20;;;;;;5033767;28;20865;-68
2023/06/12 11:20:09;;;;;;;1999.90;999.90;;;31.60;8.00;;;;;;5039744;28;20435;-68
2023/06/12 11:22:35;;;;;;;1999.90;999.90;;;31.70;7.30;;;;;;5034134;28;20491;-69
2023/06/12 11:25:05;;;;;;;1999.90;999.90;;;31.80;5.20;;;;;;5034181;28;20956;-69
2023/06/12 11:27:31;;;;;;;1999.90;999.90;;;31.90;5.80;;;;;;5034291;28;20199;-68
2023/06/12 11:30:06;;;;;;;1999.90;999.90;;;31.90;3.00;;;;;;5034578;28;20798;-68
2023/06/12 11:32:31;;;;;;;1999.90;999.90;;;32.00;3.70;;;;;;5033490;28;20462;-68
2023/06/12 11:34:57;;;;;;;1999.90;999.90;;;32.10;3.70;;;;;;5034045;28;20472;-68
2023/06/12 11:37:25;;;;;;;1999.90;999.90;;;32.10;4.70;;;;;;5033979;28;20670;-69
2023/06/12 11:40:08;;;;;;;1999.90;999.90;;;32.30;4.10;;;;;;5033803;28;20160;-68
2023/06/12 11:42:35;;;;;;;1999.90;999.90;;;32.40;3.50;;;;;;5033567;28;20438;-69
2023/06/12 11:45:01;;;;;;;1999.90;999.90;;;32.60;3.20;;;;;;5034011;28;20404;-69
2023/06/12 11:47:28;;;;;;;1999.90;999.90;;;32.70;4.00;;;;;;5033411;28;20526;-69
2023/06/12 11:49:53;;;;;;;1999.90;999.90;;;33.00;1.00;;;;;;5033961;28;20835;-69
2023/06/12 11:52:20;;;;;;;1999.90;999.90;;;32.70;1.00;;;;;;5033300;28;20502;-68
2023/06/12 11:54:58;;;;;;;1999.90;999.90;;;32.40;1.60;;;;;;5037151;28;20194;-68
2023/06/12 11:57:26;;;;;;;1999.90;999.90;;;32.60;1.90;;;;;;5033229;28;20492;-69
2023/06/12 11:59:52;;;;;;;1999.90;999.90;;;32.90;1.90;;;;;;5033874;28;20407;-68
2023/06/12 12:02:18;;;;;;;1999.90;999.90;;;33.30;1.10;;;;;;5032779;28;20454;-68